createdAt,value
2017-03-05T00:00:42.023Z,0
2017-03-05T00:01:51.511Z,0
2017-03-05T00:03:01.737Z,0
2017-03-05T00:04:10.820Z,0
2017-03-05T00:05:19.903Z,0
2017-03-05T00:06:30.155Z,0
2017-03-05T00:07:40.041Z,0
2017-03-05T00:08:49.507Z,0
2017-03-05T00:09:59.764Z,0
2017-03-05T00:11:09.630Z,0
2017-03-05T00:12:19.482Z,0
2017-03-05T00:13:29.370Z,0
2017-03-05T00:14:38.473Z,0
2017-03-05T00:15:47.193Z,0
2017-03-05T00:16:57.427Z,0
2017-03-05T00:18:07.320Z,0
2017-03-05T00:19:17.180Z,0
2017-03-05T00:20:27.047Z,0
2017-03-05T00:21:36.909Z,0
2017-03-05T00:22:46.369Z,0
2017-03-05T00:23:56.256Z,0
2017-03-05T00:25:06.141Z,0
2017-03-05T00:26:14.830Z,0
2017-03-05T00:27:24.684Z,0
2017-03-05T00:28:34.558Z,0
2017-03-05T00:29:44.404Z,0
2017-03-05T00:30:54.248Z,0
2017-03-05T00:32:03.734Z,0
2017-03-05T00:33:13.193Z,0
2017-03-05T00:34:23.062Z,0
2017-03-05T00:35:31.781Z,0
2017-03-05T00:36:41.253Z,0
2017-03-05T00:37:49.977Z,0
2017-03-05T00:38:58.675Z,0
2017-03-05T00:40:08.146Z,0
2017-03-05T00:41:17.618Z,0
2017-03-05T00:42:27.463Z,0
2017-03-05T00:43:36.175Z,0
2017-03-05T00:44:45.639Z,0
2017-03-05T00:45:55.498Z,0
2017-03-05T00:47:05.037Z,0
2017-03-05T00:48:14.884Z,0
2017-03-05T00:49:24.743Z,0
2017-03-05T00:50:33.849Z,0
2017-03-05T00:51:43.305Z,0
2017-03-05T00:52:52.372Z,0
2017-03-05T00:54:01.076Z,0
2017-03-05T00:55:10.179Z,0
2017-03-05T00:56:19.635Z,0
2017-03-05T00:57:29.121Z,0
2017-03-05T00:58:39.360Z,0
2017-03-05T00:59:49.206Z,0
2017-03-05T01:00:59.086Z,0
2017-03-05T01:02:08.175Z,0
2017-03-05T01:03:18.024Z,0
2017-03-05T01:04:27.510Z,0
2017-03-05T01:05:36.633Z,0
2017-03-05T01:06:46.482Z,0
2017-03-05T01:07:56.340Z,0
2017-03-05T01:09:05.804Z,0
2017-03-05T01:10:16.039Z,0
2017-03-05T01:11:25.500Z,0
2017-03-05T01:12:34.592Z,0
2017-03-05T01:13:44.842Z,0
2017-03-05T01:14:53.954Z,0
2017-03-05T01:16:02.665Z,0
2017-03-05T01:17:11.752Z,0
2017-03-05T01:18:20.469Z,0
2017-03-05T01:19:29.933Z,0
2017-03-05T01:20:39.008Z,0
2017-03-05T01:21:48.474Z,0
2017-03-05T01:22:57.972Z,0
2017-03-05T01:24:07.442Z,0
2017-03-05T01:25:17.284Z,0
2017-03-05T01:26:25.991Z,0
2017-03-05T01:27:35.471Z,0
2017-03-05T01:28:45.352Z,0
2017-03-05T01:29:55.199Z,0
2017-03-05T01:31:03.907Z,0
2017-03-05T01:32:13.403Z,0
2017-03-05T01:33:22.892Z,0
2017-03-05T01:34:32.002Z,0
2017-03-05T01:35:41.465Z,0
2017-03-05T01:36:50.176Z,0
2017-03-05T01:37:59.637Z,0
2017-03-05T01:39:09.497Z,0
2017-03-05T01:40:18.959Z,0
2017-03-05T01:41:27.671Z,0
2017-03-05T01:42:37.945Z,0
2017-03-05T01:43:47.817Z,0
2017-03-05T01:44:56.919Z,0
2017-03-05T01:46:06.022Z,0
2017-03-05T01:47:14.758Z,0
2017-03-05T01:48:24.628Z,0
2017-03-05T01:49:34.090Z,0
2017-03-05T01:50:43.590Z,0
2017-03-05T01:51:54.209Z,0
2017-03-05T01:53:04.442Z,0
2017-03-05T01:54:13.520Z,0
2017-03-05T01:55:23.385Z,0
2017-03-05T01:56:32.868Z,0
2017-03-05T01:57:41.951Z,0
2017-03-05T01:58:50.675Z,0
2017-03-05T02:00:00.141Z,0
2017-03-05T02:01:09.625Z,0
2017-03-05T02:02:19.493Z,0
2017-03-05T02:03:28.966Z,0
2017-03-05T02:04:38.437Z,0
2017-03-05T02:05:47.916Z,0
2017-03-05T02:06:58.152Z,0
2017-03-05T02:08:07.257Z,0
2017-03-05T02:09:17.121Z,0
2017-03-05T02:10:26.985Z,0
2017-03-05T02:11:35.690Z,0
2017-03-05T02:12:45.534Z,0
2017-03-05T02:13:55.381Z,0
2017-03-05T02:15:05.239Z,0
2017-03-05T02:16:13.941Z,0
2017-03-05T02:17:23.434Z,0
2017-03-05T02:18:32.889Z,0
2017-03-05T02:19:42.362Z,0
2017-03-05T02:20:52.236Z,0
2017-03-05T02:22:01.726Z,0
2017-03-05T02:23:11.233Z,0
2017-03-05T02:24:20.341Z,0
2017-03-05T02:25:30.574Z,0
2017-03-05T02:26:40.807Z,0
2017-03-05T02:27:50.655Z,0
2017-03-05T02:29:00.501Z,0
2017-03-05T02:30:09.579Z,0
2017-03-05T02:31:19.067Z,0
2017-03-05T02:32:29.294Z,0
2017-03-05T02:33:38.004Z,0
2017-03-05T02:34:47.480Z,0
2017-03-05T02:35:57.347Z,0
2017-03-05T02:37:07.596Z,0
2017-03-05T02:38:17.826Z,0
2017-03-05T02:39:27.688Z,0
2017-03-05T02:40:37.929Z,0
2017-03-05T02:41:47.012Z,0
2017-03-05T02:42:55.721Z,0
2017-03-05T02:44:05.200Z,0
2017-03-05T02:45:14.669Z,0
2017-03-05T02:46:23.386Z,0
2017-03-05T02:47:34.007Z,0
2017-03-05T02:48:43.861Z,0
2017-03-05T02:49:53.326Z,0
2017-03-05T02:51:03.176Z,0
2017-03-05T02:52:12.262Z,0
2017-03-05T02:53:22.892Z,0
2017-03-05T02:54:33.146Z,0
2017-03-05T02:55:42.614Z,0
2017-03-05T02:56:52.478Z,0
2017-03-05T02:58:01.558Z,0
2017-03-05T02:59:11.390Z,0
2017-03-05T03:00:21.231Z,0
2017-03-05T03:01:31.099Z,0
2017-03-05T03:02:40.970Z,0
2017-03-05T03:03:50.441Z,0
2017-03-05T03:04:59.943Z,0
2017-03-05T03:06:09.410Z,0
2017-03-05T03:07:18.487Z,0
2017-03-05T03:08:27.587Z,0
2017-03-05T03:09:37.053Z,0
2017-03-05T03:10:46.140Z,0
2017-03-05T03:11:55.628Z,0
2017-03-05T03:13:05.480Z,0
2017-03-05T03:14:15.343Z,0
2017-03-05T03:15:25.199Z,0
2017-03-05T03:16:34.682Z,0
2017-03-05T03:17:44.143Z,0
2017-03-05T03:18:54.762Z,0
2017-03-05T03:20:04.231Z,0
2017-03-05T03:21:13.690Z,0
2017-03-05T03:22:23.156Z,0
2017-03-05T03:23:32.999Z,0
2017-03-05T03:24:42.481Z,0
2017-03-05T03:25:52.313Z,0
2017-03-05T03:27:02.152Z,0
2017-03-05T03:28:12.009Z,0
2017-03-05T03:29:21.089Z,0
2017-03-05T03:30:30.541Z,0
2017-03-05T03:31:39.610Z,0
2017-03-05T03:32:49.821Z,0
2017-03-05T03:33:58.897Z,0
2017-03-05T03:35:07.972Z,0
2017-03-05T03:36:17.038Z,0
2017-03-05T03:37:26.522Z,0
2017-03-05T03:38:35.602Z,0
2017-03-05T03:39:45.460Z,0
2017-03-05T03:40:54.924Z,0
2017-03-05T03:42:05.155Z,0
2017-03-05T03:43:14.994Z,0
2017-03-05T03:44:24.435Z,0
2017-03-05T03:45:33.891Z,0
2017-03-05T03:46:43.386Z,0
2017-03-05T03:47:53.652Z,0
2017-03-05T03:49:02.362Z,0
2017-03-05T03:50:11.833Z,0
2017-03-05T03:51:20.552Z,0
2017-03-05T03:52:30.788Z,0
2017-03-05T03:53:39.855Z,0
2017-03-05T03:54:49.690Z,0
2017-03-05T03:55:59.518Z,0
2017-03-05T03:57:09.733Z,0
2017-03-05T03:58:18.427Z,0
2017-03-05T03:59:28.272Z,0
2017-03-05T04:00:37.368Z,0
2017-03-05T04:01:47.191Z,0
2017-03-05T04:02:56.255Z,0
2017-03-05T04:04:06.111Z,0
2017-03-05T04:05:15.571Z,0
2017-03-05T04:06:25.038Z,0
2017-03-05T04:07:34.093Z,0
2017-03-05T04:08:43.545Z,0
2017-03-05T04:09:53.384Z,0
2017-03-05T04:11:03.619Z,0
2017-03-05T04:12:13.479Z,0
2017-03-05T04:13:22.592Z,0
2017-03-05T04:14:31.279Z,0
2017-03-05T04:15:40.734Z,0
2017-03-05T04:16:50.176Z,0
2017-03-05T04:17:59.628Z,0
2017-03-05T04:19:09.861Z,0
2017-03-05T04:20:18.542Z,0
2017-03-05T04:21:28.011Z,0
2017-03-05T04:22:37.463Z,0
2017-03-05T04:23:46.566Z,0
2017-03-05T04:24:55.638Z,0
2017-03-05T04:26:05.495Z,0
2017-03-05T04:27:14.944Z,0
2017-03-05T04:28:23.660Z,0
2017-03-05T04:29:33.149Z,0
2017-03-05T04:30:42.606Z,0
2017-03-05T04:31:52.465Z,0
2017-03-05T04:33:01.921Z,0
2017-03-05T04:34:11.364Z,0
2017-03-05T04:35:20.836Z,0
2017-03-05T04:36:31.044Z,0
2017-03-05T04:37:40.133Z,0
2017-03-05T04:38:49.981Z,0
2017-03-05T04:39:59.073Z,0
2017-03-05T04:41:08.530Z,0
2017-03-05T04:42:17.992Z,0
2017-03-05T04:43:27.054Z,0
2017-03-05T04:44:37.304Z,0
2017-03-05T04:45:46.782Z,0
2017-03-05T04:46:56.615Z,0
2017-03-05T04:48:05.694Z,0
2017-03-05T04:49:14.780Z,0
2017-03-05T04:50:23.847Z,0
2017-03-05T04:51:32.956Z,0
2017-03-05T04:52:42.427Z,0
2017-03-05T04:53:52.668Z,0
2017-03-05T04:55:01.751Z,0
2017-03-05T04:56:10.846Z,0
2017-03-05T04:57:20.296Z,0
2017-03-05T04:58:30.125Z,0
2017-03-05T04:59:39.970Z,0
2017-03-05T05:00:49.412Z,0
2017-03-05T05:01:58.855Z,0
2017-03-05T05:03:08.303Z,0
2017-03-05T05:04:18.160Z,0
2017-03-05T05:05:27.608Z,0
2017-03-05T05:06:37.072Z,0
2017-03-05T05:07:46.545Z,0
2017-03-05T05:08:56.393Z,0
2017-03-05T05:10:06.220Z,0
2017-03-05T05:11:15.672Z,0
2017-03-05T05:12:25.152Z,0
2017-03-05T05:13:33.846Z,0
2017-03-05T05:14:43.295Z,0
2017-03-05T05:15:51.999Z,0
2017-03-05T05:17:01.073Z,0
2017-03-05T05:18:10.550Z,0
2017-03-05T05:19:19.606Z,0
2017-03-05T05:20:29.449Z,0
2017-03-05T05:21:38.143Z,0
2017-03-05T05:22:47.606Z,0
2017-03-05T05:23:57.819Z,0
2017-03-05T05:25:07.297Z,0
2017-03-05T05:26:17.120Z,0
2017-03-05T05:27:26.576Z,0
2017-03-05T05:28:35.646Z,0
2017-03-05T05:29:45.489Z,0
2017-03-05T05:30:54.552Z,0
2017-03-05T05:32:03.633Z,0
2017-03-05T05:33:13.885Z,0
2017-03-05T05:34:22.593Z,0
2017-03-05T05:35:31.656Z,0
2017-03-05T05:36:40.751Z,0
2017-03-05T05:37:50.235Z,0
2017-03-05T05:38:59.716Z,4
2017-03-05T05:40:08.422Z,4
2017-03-05T05:41:17.893Z,4
2017-03-05T05:42:28.102Z,4
2017-03-05T05:43:37.939Z,4
2017-03-05T05:44:46.997Z,4
2017-03-05T05:45:56.070Z,4
2017-03-05T05:47:05.151Z,8
2017-03-05T05:48:14.615Z,8
2017-03-05T05:49:24.071Z,8
2017-03-05T05:50:33.539Z,8
2017-03-05T05:51:43.014Z,12
2017-03-05T05:52:52.456Z,12
2017-03-05T05:54:01.141Z,16
2017-03-05T05:55:11.381Z,20
2017-03-05T05:56:20.850Z,20
2017-03-05T05:57:30.302Z,28
2017-03-05T05:58:40.136Z,36
2017-03-05T05:59:49.600Z,40
2017-03-05T06:00:58.675Z,48
2017-03-05T06:02:08.922Z,56
2017-03-05T06:03:19.153Z,76
2017-03-05T06:04:28.606Z,92
2017-03-05T06:05:38.451Z,112
2017-03-05T06:06:47.897Z,132
2017-03-05T06:07:56.967Z,144
2017-03-05T06:09:06.793Z,144
2017-03-05T06:10:16.234Z,144
2017-03-05T06:11:25.724Z,156
2017-03-05T06:12:35.549Z,176
2017-03-05T06:13:45.013Z,200
2017-03-05T06:14:55.241Z,232
2017-03-05T06:16:04.698Z,256
2017-03-05T06:17:14.549Z,264
2017-03-05T06:18:23.648Z,300
2017-03-05T06:19:32.713Z,352
2017-03-05T06:20:42.161Z,372
2017-03-05T06:21:51.620Z,396
2017-03-05T06:23:00.728Z,420
2017-03-05T06:24:10.554Z,504
2017-03-05T06:25:19.618Z,584
2017-03-05T06:26:29.088Z,708
2017-03-05T06:27:38.541Z,808
2017-03-05T06:28:48.403Z,956
2017-03-05T06:29:58.244Z,1132
2017-03-05T06:31:08.470Z,1304
2017-03-05T06:32:17.928Z,1508
2017-03-05T06:33:27.381Z,1596
2017-03-05T06:34:36.465Z,1640
2017-03-05T06:35:46.327Z,1588
2017-03-05T06:36:56.549Z,1500
2017-03-05T06:38:05.255Z,1432
2017-03-05T06:39:14.717Z,1424
2017-03-05T06:40:23.779Z,1472
2017-03-05T06:41:33.237Z,1692
2017-03-05T06:42:42.700Z,1932
2017-03-05T06:43:52.163Z,2088
2017-03-05T06:45:01.639Z,2304
2017-03-05T06:46:11.509Z,2548
2017-03-05T06:47:20.972Z,2928
2017-03-05T06:48:30.065Z,3552
2017-03-05T06:49:39.517Z,4272
2017-03-05T06:50:48.579Z,4684
2017-03-05T06:51:58.826Z,4216
2017-03-05T06:53:08.300Z,4248
2017-03-05T06:54:18.139Z,4624
2017-03-05T06:55:27.651Z,4508
2017-03-05T06:56:37.487Z,4400
2017-03-05T06:57:46.974Z,3948
2017-03-05T06:58:56.035Z,3616
2017-03-05T07:00:06.276Z,3508
2017-03-05T07:01:15.744Z,3488
2017-03-05T07:02:24.823Z,3672
2017-03-05T07:03:35.031Z,3720
2017-03-05T07:04:44.512Z,3588
2017-03-05T07:05:54.724Z,3444
2017-03-05T07:07:04.551Z,3468
2017-03-05T07:08:14.020Z,3620
2017-03-05T07:09:23.099Z,3748
2017-03-05T07:10:32.184Z,4000
2017-03-05T07:11:42.405Z,4304
2017-03-05T07:12:52.259Z,4216
2017-03-05T07:14:01.723Z,4216
2017-03-05T07:15:12.327Z,4176
2017-03-05T07:16:21.401Z,3996
2017-03-05T07:17:30.110Z,3872
2017-03-05T07:18:39.568Z,3872
2017-03-05T07:19:49.023Z,3968
2017-03-05T07:20:58.882Z,4100
2017-03-05T07:22:08.719Z,4348
2017-03-05T07:23:18.168Z,4428
2017-03-05T07:24:27.630Z,4540
2017-03-05T07:25:37.085Z,4780
2017-03-05T07:26:46.559Z,4956
2017-03-05T07:27:56.419Z,5392
2017-03-05T07:29:06.259Z,5824
2017-03-05T07:30:15.713Z,5988
2017-03-05T07:31:24.767Z,6080
2017-03-05T07:32:33.480Z,6280
2017-03-05T07:33:42.194Z,6944
2017-03-05T07:34:52.448Z,7420
2017-03-05T07:36:01.902Z,7884
2017-03-05T07:37:10.985Z,8228
2017-03-05T07:38:21.213Z,8304
2017-03-05T07:39:30.296Z,10236
2017-03-05T07:40:39.755Z,11420
2017-03-05T07:41:49.245Z,9756
2017-03-05T07:42:58.717Z,9080
2017-03-05T07:44:07.802Z,8520
2017-03-05T07:45:16.884Z,7996
2017-03-05T07:46:26.358Z,7448
2017-03-05T07:47:35.819Z,7544
2017-03-05T07:48:45.659Z,8668
2017-03-05T07:49:55.495Z,8952
2017-03-05T07:51:04.579Z,8232
2017-03-05T07:52:13.662Z,6884
2017-03-05T07:53:23.495Z,6840
2017-03-05T07:54:32.955Z,6744
2017-03-05T07:55:42.022Z,7280
2017-03-05T07:56:51.109Z,8148
2017-03-05T07:58:01.342Z,8708
2017-03-05T07:59:11.218Z,7944
2017-03-05T08:00:20.288Z,8064
2017-03-05T08:01:29.375Z,8496
2017-03-05T08:02:38.846Z,9824
2017-03-05T08:03:48.305Z,12044
2017-03-05T08:04:58.959Z,13360
2017-03-05T08:06:08.443Z,12200
2017-03-05T08:07:18.313Z,11240
2017-03-05T08:08:27.024Z,10780
2017-03-05T08:09:36.874Z,11304
2017-03-05T08:10:47.140Z,13280
2017-03-05T08:11:56.590Z,12076
2017-03-05T08:13:06.419Z,13224
2017-03-05T08:14:15.874Z,11740
2017-03-05T08:15:25.332Z,11640
2017-03-05T08:16:34.811Z,12412
2017-03-05T08:17:44.298Z,10428
2017-03-05T08:18:53.765Z,12288
2017-03-05T08:20:04.365Z,11856
2017-03-05T08:21:13.430Z,11676
2017-03-05T08:22:22.886Z,13064
2017-03-05T08:23:31.967Z,12680
2017-03-05T08:24:41.474Z,10064
2017-03-05T08:25:50.588Z,11812
2017-03-05T08:26:59.668Z,12312
2017-03-05T08:28:09.133Z,14576
2017-03-05T08:29:18.209Z,12268
2017-03-05T08:30:27.673Z,12672
2017-03-05T08:31:38.291Z,11712
2017-03-05T08:32:48.137Z,10612
2017-03-05T08:33:57.613Z,11260
2017-03-05T08:35:06.682Z,12300
2017-03-05T08:36:15.769Z,11752
2017-03-05T08:37:25.216Z,9492
2017-03-05T08:38:34.679Z,11664
2017-03-05T08:39:44.130Z,9232
2017-03-05T08:40:54.740Z,11484
2017-03-05T08:42:03.439Z,10952
2017-03-05T08:43:13.296Z,10716
2017-03-05T08:44:22.748Z,10744
2017-03-05T08:45:32.602Z,9568
2017-03-05T08:46:41.331Z,10264
2017-03-05T08:47:50.806Z,10340
2017-03-05T08:49:00.639Z,12324
2017-03-05T08:50:10.119Z,8716
2017-03-05T08:51:20.340Z,9996
2017-03-05T08:52:30.187Z,8692
2017-03-05T08:53:39.647Z,13496
2017-03-05T08:54:49.103Z,14324
2017-03-05T08:55:58.944Z,14088
2017-03-05T08:57:08.395Z,15888
2017-03-05T08:58:17.873Z,11964
2017-03-05T08:59:26.947Z,19520
2017-03-05T09:00:36.782Z,23200
2017-03-05T09:01:46.248Z,22080
2017-03-05T09:02:56.102Z,21824
2017-03-05T09:04:05.220Z,21600
2017-03-05T09:05:15.078Z,22016
2017-03-05T09:06:24.153Z,20128
2017-03-05T09:07:34.013Z,22720
2017-03-05T09:08:44.626Z,22784
2017-03-05T09:09:53.321Z,20096
2017-03-05T09:11:02.810Z,20960
2017-03-05T09:12:12.290Z,21472
2017-03-05T09:13:21.385Z,21344
2017-03-05T09:14:30.853Z,20384
2017-03-05T09:15:40.304Z,17664
2017-03-05T09:16:49.404Z,12616
2017-03-05T09:17:58.492Z,18400
2017-03-05T09:19:08.341Z,18624
2017-03-05T09:20:17.806Z,18208
2017-03-05T09:21:26.888Z,19520
2017-03-05T09:22:36.354Z,13448
2017-03-05T09:23:45.429Z,13536
2017-03-05T09:24:54.500Z,12396
2017-03-05T09:26:03.586Z,13132
2017-03-05T09:27:12.667Z,17392
2017-03-05T09:28:21.739Z,16144
2017-03-05T09:29:31.216Z,12784
2017-03-05T09:30:40.292Z,25152
2017-03-05T09:31:49.379Z,28512
2017-03-05T09:32:58.457Z,16456
2017-03-05T09:34:08.315Z,19936
2017-03-05T09:35:17.440Z,26496
2017-03-05T09:36:26.137Z,25984
2017-03-05T09:37:36.375Z,26848
2017-03-05T09:38:45.844Z,25088
2017-03-05T09:39:55.303Z,24128
2017-03-05T09:41:04.775Z,22464
2017-03-05T09:42:14.248Z,21216
2017-03-05T09:43:23.349Z,21024
2017-03-05T09:44:32.807Z,22144
2017-03-05T09:45:42.278Z,23328
2017-03-05T09:46:52.120Z,22912
2017-03-05T09:48:01.588Z,21600
2017-03-05T09:49:10.690Z,25120
2017-03-05T09:50:19.787Z,26528
2017-03-05T09:51:28.875Z,24224
2017-03-05T09:52:38.730Z,20928
2017-03-05T09:53:48.234Z,20800
2017-03-05T09:54:58.506Z,21600
2017-03-05T09:56:07.961Z,12752
2017-03-05T09:57:17.435Z,20192
2017-03-05T09:58:26.530Z,11744
2017-03-05T09:59:35.992Z,22304
2017-03-05T10:00:44.697Z,21024
2017-03-05T10:01:54.547Z,20032
2017-03-05T10:03:03.631Z,19136
2017-03-05T10:04:12.715Z,16940
2017-03-05T10:05:22.204Z,19264
2017-03-05T10:06:31.695Z,20960
2017-03-05T10:07:40.788Z,22240
2017-03-05T10:08:50.265Z,16864
2017-03-05T10:09:59.359Z,16648
2017-03-05T10:11:08.453Z,19584
2017-03-05T10:12:18.298Z,20448
2017-03-05T10:13:28.146Z,22432
2017-03-05T10:14:37.215Z,15548
2017-03-05T10:15:46.324Z,19520
2017-03-05T10:16:56.159Z,20672
2017-03-05T10:18:04.842Z,23136
2017-03-05T10:19:13.939Z,20704
2017-03-05T10:20:23.397Z,21312
2017-03-05T10:21:32.858Z,23488
2017-03-05T10:22:42.345Z,27296
2017-03-05T10:23:52.212Z,22208
2017-03-05T10:25:02.054Z,20576
2017-03-05T10:26:12.659Z,17888
2017-03-05T10:27:21.759Z,17984
2017-03-05T10:28:31.976Z,19200
2017-03-05T10:29:41.051Z,23872
2017-03-05T10:30:50.135Z,26464
2017-03-05T10:31:59.621Z,22208
2017-03-05T10:33:09.085Z,24736
2017-03-05T10:34:18.929Z,22944
2017-03-05T10:35:29.568Z,22592
2017-03-05T10:36:39.053Z,21152
2017-03-05T10:37:48.541Z,23200
2017-03-05T10:38:57.651Z,25856
2017-03-05T10:40:07.517Z,21536
2017-03-05T10:41:17.356Z,19200
2017-03-05T10:42:26.445Z,26208
2017-03-05T10:43:35.524Z,17572
2017-03-05T10:44:44.621Z,14076
2017-03-05T10:45:54.491Z,20000
2017-03-05T10:47:04.355Z,21536
2017-03-05T10:48:13.816Z,17344
2017-03-05T10:49:23.709Z,17808
2017-03-05T10:50:33.544Z,18144
2017-03-05T10:51:43.787Z,18688
2017-03-05T10:52:53.274Z,21408
2017-03-05T10:54:02.731Z,17040
2017-03-05T10:55:12.567Z,15444
2017-03-05T10:56:22.038Z,16404
2017-03-05T10:57:31.116Z,18976
2017-03-05T10:58:41.345Z,24064
2017-03-05T10:59:50.415Z,26432
2017-03-05T11:00:59.881Z,20576
2017-03-05T11:02:10.120Z,17152
2017-03-05T11:03:18.822Z,14900
2017-03-05T11:04:27.912Z,15264
2017-03-05T11:05:37.010Z,17224
2017-03-05T11:06:45.699Z,16860
2017-03-05T11:07:55.533Z,16920
2017-03-05T11:09:05.377Z,17308
2017-03-05T11:10:14.107Z,16436
2017-03-05T11:11:23.575Z,17496
2017-03-05T11:12:33.044Z,21376
2017-03-05T11:13:42.886Z,24000
2017-03-05T11:14:52.745Z,20832
2017-03-05T11:16:02.988Z,19104
2017-03-05T11:17:12.837Z,17016
2017-03-05T11:18:21.544Z,15188
2017-03-05T11:19:31.421Z,14584
2017-03-05T11:20:40.492Z,16200
2017-03-05T11:21:50.331Z,17420
2017-03-05T11:22:59.428Z,18176
2017-03-05T11:24:09.308Z,18784
2017-03-05T11:25:18.424Z,17520
2017-03-05T11:26:28.259Z,17536
2017-03-05T11:27:37.740Z,18688
2017-03-05T11:28:47.202Z,15156
2017-03-05T11:29:56.308Z,11772
2017-03-05T11:31:05.788Z,15296
2017-03-05T11:32:15.276Z,18200
2017-03-05T11:33:25.489Z,16628
2017-03-05T11:34:35.338Z,17096
2017-03-05T11:35:44.423Z,13380
2017-03-05T11:36:53.129Z,17608
2017-03-05T11:38:03.357Z,19840
2017-03-05T11:39:13.225Z,15708
2017-03-05T11:40:23.111Z,13128
2017-03-05T11:41:32.950Z,12380
2017-03-05T11:42:42.426Z,12528
2017-03-05T11:43:51.141Z,14488
2017-03-05T11:45:00.631Z,16436
2017-03-05T11:46:10.891Z,16548
2017-03-05T11:47:20.362Z,13848
2017-03-05T11:48:29.837Z,16208
2017-03-05T11:49:38.930Z,18400
2017-03-05T11:50:48.427Z,19168
2017-03-05T11:51:57.504Z,17356
2017-03-05T11:53:07.350Z,17376
2017-03-05T11:54:17.179Z,16956
2017-03-05T11:55:26.269Z,16712
2017-03-05T11:56:36.109Z,17924
2017-03-05T11:57:45.956Z,13340
2017-03-05T11:58:55.059Z,12440
2017-03-05T12:00:04.920Z,15624
2017-03-05T12:01:13.651Z,19840
2017-03-05T12:02:22.760Z,22272
2017-03-05T12:03:32.256Z,17740
2017-03-05T12:04:41.713Z,14664
2017-03-05T12:05:51.191Z,17572
2017-03-05T12:07:00.665Z,24064
2017-03-05T12:08:09.748Z,23424
2017-03-05T12:09:19.574Z,16968
2017-03-05T12:10:29.030Z,16280
2017-03-05T12:11:38.889Z,19840
2017-03-05T12:12:47.988Z,17820
2017-03-05T12:13:57.076Z,16348
2017-03-05T12:15:06.988Z,19776
2017-03-05T12:16:16.460Z,22592
2017-03-05T12:17:25.927Z,21184
2017-03-05T12:18:35.800Z,16884
2017-03-05T12:19:44.876Z,15476
2017-03-05T12:20:53.961Z,16392
2017-03-05T12:22:03.047Z,19936
2017-03-05T12:23:12.507Z,20864
2017-03-05T12:24:21.960Z,19360
2017-03-05T12:25:31.425Z,18336
2017-03-05T12:26:40.886Z,19552
2017-03-05T12:27:50.340Z,22720
2017-03-05T12:28:59.840Z,23424
2017-03-05T12:30:09.675Z,19360
2017-03-05T12:31:19.128Z,18176
2017-03-05T12:32:29.739Z,20160
2017-03-05T12:33:39.959Z,21024
2017-03-05T12:34:49.835Z,19008
2017-03-05T12:35:59.668Z,21504
2017-03-05T12:37:08.764Z,25280
2017-03-05T12:38:18.642Z,27296
2017-03-05T12:39:28.492Z,23232
2017-03-05T12:40:37.971Z,19776
2017-03-05T12:41:48.202Z,19712
2017-03-05T12:42:58.049Z,19040
2017-03-05T12:44:07.894Z,19520
2017-03-05T12:45:17.403Z,19744
2017-03-05T12:46:27.248Z,19424
2017-03-05T12:47:36.727Z,16772
2017-03-05T12:48:46.596Z,15660
2017-03-05T12:49:55.718Z,15500
2017-03-05T12:51:05.943Z,14656
2017-03-05T12:52:16.176Z,14632
2017-03-05T12:53:26.018Z,17184
2017-03-05T12:54:35.481Z,20448
2017-03-05T12:55:45.330Z,18624
2017-03-05T12:56:54.427Z,13864
2017-03-05T12:58:03.914Z,11028
2017-03-05T12:59:13.754Z,9820
2017-03-05T13:00:24.437Z,9264
2017-03-05T13:01:33.906Z,9060
2017-03-05T13:02:42.992Z,10216
2017-03-05T13:03:53.601Z,10936
2017-03-05T13:05:02.670Z,11276
2017-03-05T13:06:11.771Z,12436
2017-03-05T13:07:22.066Z,14104
2017-03-05T13:08:31.569Z,15604
2017-03-05T13:09:41.422Z,14508
2017-03-05T13:10:51.268Z,12944
2017-03-05T13:12:00.762Z,12020
2017-03-05T13:13:10.214Z,11660
2017-03-05T13:14:20.080Z,12032
2017-03-05T13:15:29.533Z,12420
2017-03-05T13:16:39.022Z,13088
2017-03-05T13:17:48.483Z,14096
2017-03-05T13:18:57.962Z,15884
2017-03-05T13:20:07.408Z,15884
2017-03-05T13:21:16.502Z,16336
2017-03-05T13:22:26.773Z,16884
2017-03-05T13:23:36.247Z,17796
2017-03-05T13:24:45.336Z,20032
2017-03-05T13:25:55.205Z,20576
2017-03-05T13:27:04.677Z,21024
2017-03-05T13:28:14.137Z,19296
2017-03-05T13:29:23.599Z,18048
2017-03-05T13:30:32.679Z,16468
2017-03-05T13:31:41.770Z,20128
2017-03-05T13:32:50.869Z,23968
2017-03-05T13:34:00.340Z,22464
2017-03-05T13:35:09.826Z,19360
2017-03-05T13:36:19.674Z,15952
2017-03-05T13:37:28.765Z,14588
2017-03-05T13:38:38.216Z,14160
2017-03-05T13:39:47.295Z,13988
2017-03-05T13:40:57.515Z,15028
2017-03-05T13:42:06.624Z,16920
2017-03-05T13:43:16.850Z,16416
2017-03-05T13:44:26.704Z,16232
2017-03-05T13:45:36.185Z,16868
2017-03-05T13:46:44.868Z,16048
2017-03-05T13:47:54.381Z,15620
2017-03-05T13:49:03.465Z,16564
2017-03-05T13:50:12.172Z,16740
2017-03-05T13:51:22.024Z,16688
2017-03-05T13:52:31.504Z,17108
2017-03-05T13:53:40.972Z,18016
2017-03-05T13:54:50.432Z,19904
2017-03-05T13:55:59.527Z,20960
2017-03-05T13:57:09.395Z,20736
2017-03-05T13:58:18.471Z,20320
2017-03-05T13:59:27.567Z,19520
2017-03-05T14:00:37.029Z,18528
2017-03-05T14:01:46.875Z,17296
2017-03-05T14:02:56.356Z,16488
2017-03-05T14:04:06.216Z,15992
2017-03-05T14:05:15.686Z,15564
2017-03-05T14:06:24.392Z,15000
2017-03-05T14:07:34.229Z,14212
2017-03-05T14:08:44.080Z,13312
2017-03-05T14:09:53.153Z,12508
2017-03-05T14:11:02.601Z,11708
2017-03-05T14:12:12.056Z,10972
2017-03-05T14:13:21.516Z,10252
2017-03-05T14:14:30.620Z,9772
2017-03-05T14:15:39.704Z,9620
2017-03-05T14:16:49.178Z,9720
2017-03-05T14:17:58.635Z,10088
2017-03-05T14:19:08.129Z,10280
2017-03-05T14:20:17.200Z,10248
2017-03-05T14:21:27.066Z,10936
2017-03-05T14:22:36.144Z,11604
2017-03-05T14:23:45.987Z,12236
2017-03-05T14:24:55.463Z,12204
2017-03-05T14:26:05.317Z,11668
2017-03-05T14:27:14.777Z,11316
2017-03-05T14:28:24.649Z,11480
2017-03-05T14:29:34.133Z,11372
2017-03-05T14:30:43.225Z,11592
2017-03-05T14:31:52.686Z,11940
2017-03-05T14:33:02.138Z,12812
2017-03-05T14:34:11.601Z,12916
2017-03-05T14:35:21.078Z,13064
2017-03-05T14:36:30.168Z,12500
2017-03-05T14:37:40.407Z,11356
2017-03-05T14:38:50.266Z,10064
2017-03-05T14:40:00.156Z,9124
2017-03-05T14:41:10.370Z,8884
2017-03-05T14:42:19.069Z,9224
2017-03-05T14:43:28.919Z,9920
2017-03-05T14:44:37.983Z,10468
2017-03-05T14:45:47.453Z,10240
2017-03-05T14:46:56.906Z,9260
2017-03-05T14:48:06.374Z,8044
2017-03-05T14:49:16.229Z,7100
2017-03-05T14:50:25.300Z,6488
2017-03-05T14:51:34.378Z,6092
2017-03-05T14:52:43.479Z,5828
2017-03-05T14:53:52.982Z,5628
2017-03-05T14:55:02.051Z,5388
2017-03-05T14:56:11.509Z,5368
2017-03-05T14:57:21.358Z,5632
2017-03-05T14:58:31.208Z,5888
2017-03-05T14:59:41.857Z,5996
2017-03-05T15:00:51.681Z,5920
2017-03-05T15:02:01.140Z,5812
2017-03-05T15:03:10.597Z,5804
2017-03-05T15:04:19.669Z,5912
2017-03-05T15:05:29.113Z,5828
2017-03-05T15:06:38.175Z,5820
2017-03-05T15:07:47.625Z,5840
2017-03-05T15:08:57.077Z,5880
2017-03-05T15:10:06.911Z,5924
2017-03-05T15:11:15.980Z,5796
2017-03-05T15:12:25.826Z,5544
2017-03-05T15:13:34.523Z,5344
2017-03-05T15:14:43.995Z,5228
2017-03-05T15:15:53.442Z,5260
2017-03-05T15:17:02.541Z,5384
2017-03-05T15:18:11.605Z,5564
2017-03-05T15:19:21.073Z,5620
2017-03-05T15:20:30.938Z,5664
2017-03-05T15:21:41.189Z,5780
2017-03-05T15:22:51.030Z,6016
2017-03-05T15:24:00.104Z,6096
2017-03-05T15:25:09.948Z,6072
2017-03-05T15:26:19.433Z,5856
2017-03-05T15:27:28.886Z,5496
2017-03-05T15:28:38.753Z,5208
2017-03-05T15:29:47.845Z,5128
2017-03-05T15:30:56.561Z,5360
2017-03-05T15:32:06.024Z,5496
2017-03-05T15:33:15.489Z,5388
2017-03-05T15:34:24.572Z,5424
2017-03-05T15:35:34.414Z,5736
2017-03-05T15:36:43.893Z,6060
2017-03-05T15:37:53.744Z,6072
2017-03-05T15:39:03.222Z,5744
2017-03-05T15:40:12.312Z,5300
2017-03-05T15:41:21.006Z,5196
2017-03-05T15:42:30.852Z,4844
2017-03-05T15:43:41.091Z,4392
2017-03-05T15:44:49.831Z,4116
2017-03-05T15:45:59.277Z,3876
2017-03-05T15:47:08.752Z,3908
2017-03-05T15:48:18.599Z,4084
2017-03-05T15:49:28.055Z,4008